sensor_id;sensor_type;location;lat;lon;timestamp;pressure;altitude;pressure_sealevel;temperature;humidity
59170;BME280;52474;52.236;5.114;2023-02-28T00:00:31;103262.34;;;1.37;100.00
59170;BME280;52474;52.236;5.114;2023-02-28T00:02:57;103252.75;;;1.37;100.00
59170;BME280;52474;52.236;5.114;2023-02-28T00:05:24;103253.56;;;1.42;100.00
59170;BME280;52474;52.236;5.114;2023-02-28T00:07:50;103205.13;;;1.09;100.00
59170;BME280;52474;52.236;5.114;2023-02-28T00:10:24;103252.69;;;1.45;100.00
59170;BME280;52474;52.236;5.114;2023-02-28T00:12:51;103251.75;;;1.52;100.00
59170;BME280;52474;52.236;5.114;2023-02-28T00:15:17;103231.00;;;1.37;100.00
59170;BME280;52474;52.236;5.114;2023-02-28T00:17:43;103256.09;;;1.58;100.00
59170;BME280;52474;52.236;5.114;2023-02-28T00:20:10;103257.81;;;1.60;100.00
59170;BME280;52474;52.236;5.114;2023-02-28T00:22:42;103261.22;;;1.65;100.00
59170;BME280;52474;52.236;5.114;2023-02-28T00:25:09;103254.25;;;1.67;100.00
59170;BME280;52474;52.236;5.114;2023-02-28T00:27:40;103256.84;;;1.69;100.00
59170;BME280;52474;52.236;5.114;2023-02-28T00:30:08;103255.06;;;1.69;100.00
59170;BME280;52474;52.236;5.114;2023-02-28T00:32:36;103248.97;;;1.72;100.00
59170;BME280;52474;52.236;5.114;2023-02-28T00:35:04;103208.34;;;1.40;100.00
59170;BME280;52474;52.236;5.114;2023-02-28T00:37:30;103256.78;;;1.75;100.00
59170;BME280;52474;52.236;5.114;2023-02-28T00:39:55;103247.19;;;1.74;100.00
59170;BME280;52474;52.236;5.114;2023-02-28T00:42:21;103242.91;;;1.67;100.00
59170;BME280;52474;52.236;5.114;2023-02-28T00:44:47;103248.91;;;1.78;100.00
59170;BME280;52474;52.236;5.114;2023-02-28T00:47:13;103243.69;;;1.78;100.00
59170;BME280;52474;52.236;5.114;2023-02-28T00:49:38;103253.25;;;1.82;100.00
59170;BME280;52474;52.236;5.114;2023-02-28T00:52:04;103253.25;;;1.79;100.00
59170;BME280;52474;52.236;5.114;2023-02-28T00:54:30;103235.06;;;1.67;100.00
59170;BME280;52474;52.236;5.114;2023-02-28T00:56:55;103256.72;;;1.81;100.00
59170;BME280;52474;52.236;5.114;2023-02-28T00:59:21;103248.00;;;1.81;100.00
59170;BME280;52474;52.236;5.114;2023-02-28T01:01:47;103261.97;;;1.78;100.00
59170;BME280;52474;52.236;5.114;2023-02-28T01:04:13;103268.06;;;1.77;100.00
59170;BME280;52474;52.236;5.114;2023-02-28T01:06:39;103258.47;;;1.81;100.00
59170;BME280;52474;52.236;5.114;2023-02-28T01:09:06;103259.31;;;1.81;100.00
59170;BME280;52474;52.236;5.114;2023-02-28T01:11:33;103232.50;;;1.65;100.00
59170;BME280;52474;52.236;5.114;2023-02-28T01:13:59;103254.09;;;1.81;100.00
59170;BME280;52474;52.236;5.114;2023-02-28T01:16:26;103239.41;;;1.69;100.00
59170;BME280;52474;52.236;5.114;2023-02-28T01:18:52;103263.66;;;1.84;100.00
59170;BME280;52474;52.236;5.114;2023-02-28T01:21:19;103256.66;;;1.86;100.00
59170;BME280;52474;52.236;5.114;2023-02-28T01:23:46;103252.34;;;1.82;100.00
59170;BME280;52474;52.236;5.114;2023-02-28T01:26:20;103254.06;;;1.86;100.00
59170;BME280;52474;52.236;5.114;2023-02-28T01:28:46;103212.47;;;1.67;100.00
59170;BME280;52474;52.236;5.114;2023-02-28T01:31:12;103213.25;;;1.74;100.00
59170;BME280;52474;52.236;5.114;2023-02-28T01:33:39;103224.50;;;1.81;100.00
59170;BME280;52474;52.236;5.114;2023-02-28T01:36:09;103236.56;;;1.92;100.00
59170;BME280;52474;52.236;5.114;2023-02-28T01:38:35;103186.44;;;1.58;100.00
59170;BME280;52474;52.236;5.114;2023-02-28T01:41:01;103197.56;;;1.76;100.00
59170;BME280;52474;52.236;5.114;2023-02-28T01:43:53;103239.09;;;2.00;100.00
59170;BME280;52474;52.236;5.114;2023-02-28T01:46:17;103234.78;;;1.96;100.00
59170;BME280;52474;52.236;5.114;2023-02-28T01:48:49;103229.56;;;1.96;100.00
59170;BME280;52474;52.236;5.114;2023-02-28T01:51:21;103212.25;;;1.87;100.00
59170;BME280;52474;52.236;5.114;2023-02-28T01:53:51;103203.56;;;1.84;100.00
59170;BME280;52474;52.236;5.114;2023-02-28T01:56:24;103232.13;;;2.02;100.00
59170;BME280;52474;52.236;5.114;2023-02-28T01:58:52;103207.03;;;1.86;100.00
59170;BME280;52474;52.236;5.114;2023-02-28T02:01:19;103221.63;;;2.04;100.00
59170;BME280;52474;52.236;5.114;2023-02-28T02:04:01;103198.25;;;1.91;100.00
59170;BME280;52474;52.236;5.114;2023-02-28T02:06:31;103199.13;;;1.90;100.00
59170;BME280;52474;52.236;5.114;2023-02-28T02:08:59;103214.72;;;2.00;100.00
59170;BME280;52474;52.236;5.114;2023-02-28T02:11:25;103171.47;;;1.69;100.00
59170;BME280;52474;52.236;5.114;2023-02-28T02:16:57;103215.44;;;2.11;100.00
59170;BME280;52474;52.236;5.114;2023-02-28T02:36:38;103212.72;;;2.20;100.00
59170;BME280;52474;52.236;5.114;2023-02-28T02:39:19;103211.03;;;2.16;100.00
59170;BME280;52474;52.236;5.114;2023-02-28T02:41:51;103134.06;;;1.70;100.00
59170;BME280;52474;52.236;5.114;2023-02-28T02:44:21;103220.59;;;2.19;100.00
59170;BME280;52474;52.236;5.114;2023-02-28T02:46:53;103212.72;;;2.19;100.00
59170;BME280;52474;52.236;5.114;2023-02-28T02:49:36;103204.94;;;2.15;100.00
59170;BME280;52474;52.236;5.114;2023-02-28T02:52:06;103211.88;;;2.18;100.00
59170;BME280;52474;52.236;5.114;2023-02-28T02:54:38;103216.25;;;2.16;100.00
59170;BME280;52474;52.236;5.114;2023-02-28T02:57:17;103191.97;;;2.09;100.00
59170;BME280;52474;52.236;5.114;2023-02-28T02:59:45;103217.94;;;2.22;100.00
59170;BME280;52474;52.236;5.114;2023-02-28T03:02:13;103154.81;;;1.81;100.00
59170;BME280;52474;52.236;5.114;2023-02-28T03:04:48;103219.66;;;2.24;100.00
59170;BME280;52474;52.236;5.114;2023-02-28T03:07:16;103198.00;;;2.13;100.00
59170;BME280;52474;52.236;5.114;2023-02-28T03:09:51;103210.97;;;2.22;100.00
59170;BME280;52474;52.236;5.114;2023-02-28T03:12:18;103217.06;;;2.23;100.00
59170;BME280;52474;52.236;5.114;2023-02-28T03:22:46;103202.16;;;2.28;100.00
59170;BME280;52474;52.236;5.114;2023-02-28T03:30:27;103193.53;;;2.23;100.00
59170;BME280;52474;52.236;5.114;2023-02-28T03:36:11;103197.78;;;2.30;100.00
59170;BME280;52474;52.236;5.114;2023-02-28T03:38:46;103177.09;;;2.14;100.00
59170;BME280;52474;52.236;5.114;2023-02-28T03:41:30;103205.63;;;2.30;100.00
59170;BME280;52474;52.236;5.114;2023-02-28T03:44:09;103205.66;;;2.28;100.00
59170;BME280;52474;52.236;5.114;2023-02-28T03:46:46;103212.63;;;2.29;100.00
59170;BME280;52474;52.236;5.114;2023-02-28T03:49:22;103215.25;;;2.28;100.00
59170;BME280;52474;52.236;5.114;2023-02-28T03:51:51;103216.16;;;2.25;100.00
59170;BME280;52474;52.236;5.114;2023-02-28T03:54:22;103202.22;;;2.23;100.00
59170;BME280;52474;52.236;5.114;2023-02-28T03:57:04;103222.25;;;2.26;100.00
59170;BME280;52474;52.236;5.114;2023-02-28T03:59:36;103222.28;;;2.24;100.00
59170;BME280;52474;52.236;5.114;2023-02-28T04:02:03;103195.38;;;2.11;100.00
59170;BME280;52474;52.236;5.114;2023-02-28T04:04:28;103217.06;;;2.23;100.00
59170;BME280;52474;52.236;5.114;2023-02-28T04:07:01;103191.03;;;2.13;100.00
59170;BME280;52474;52.236;5.114;2023-02-28T04:09:28;103216.16;;;2.24;100.00
59170;BME280;52474;52.236;5.114;2023-02-28T04:11:54;103204.88;;;2.22;100.00
59170;BME280;52474;52.236;5.114;2023-02-28T04:14:21;103215.28;;;2.25;100.00
59170;BME280;52474;52.236;5.114;2023-02-28T04:16:47;103217.91;;;2.25;100.00
59170;BME280;52474;52.236;5.114;2023-02-28T04:19:14;103215.28;;;2.25;100.00
59170;BME280;52474;52.236;5.114;2023-02-28T04:21:42;103194.50;;;2.14;100.00
59170;BME280;52474;52.236;5.114;2023-02-28T04:24:11;103217.06;;;2.24;100.00
59170;BME280;52474;52.236;5.114;2023-02-28T04:26:41;103212.63;;;2.29;100.00
59170;BME280;52474;52.236;5.114;2023-02-28T04:29:10;103217.00;;;2.27;100.00
59170;BME280;52474;52.236;5.114;2023-02-28T04:31:36;103189.34;;;2.09;100.00
59170;BME280;52474;52.236;5.114;2023-02-28T04:34:02;103171.19;;;1.96;100.00
59170;BME280;52474;52.236;5.114;2023-02-28T04:36:27;103178.03;;;2.06;100.00
59170;BME280;52474;52.236;5.114;2023-02-28T04:38:53;103197.09;;;2.15;100.00
59170;BME280;52474;52.236;5.114;2023-02-28T04:41:21;103221.38;;;2.27;100.00
59170;BME280;52474;52.236;5.114;2023-02-28T04:43:47;103219.63;;;2.27;100.00
59170;BME280;52474;52.236;5.114;2023-02-28T04:46:12;103213.53;;;2.24;100.00
59170;BME280;52474;52.236;5.114;2023-02-28T04:48:39;103198.91;;;2.10;100.00
59170;BME280;52474;52.236;5.114;2023-02-28T04:51:07;103208.34;;;2.21;100.00
59170;BME280;52474;52.236;5.114;2023-02-28T04:53:34;103201.56;;;2.04;100.00
59170;BME280;52474;52.236;5.114;2023-02-28T04:56:00;103220.53;;;2.23;100.00
59170;BME280;52474;52.236;5.114;2023-02-28T04:58:26;103216.25;;;2.19;100.00
59170;BME280;52474;52.236;5.114;2023-02-28T05:00:54;103220.56;;;2.20;100.00
59170;BME280;52474;52.236;5.114;2023-02-28T05:03:20;103214.50;;;2.17;100.00
59170;BME280;52474;52.236;5.114;2023-02-28T05:05:47;103194.69;;;2.00;100.00
59170;BME280;52474;52.236;5.114;2023-02-28T05:08:13;103217.19;;;2.10;100.00
59170;BME280;52474;52.236;5.114;2023-02-28T05:10:39;103188.59;;;1.97;100.00
59170;BME280;52474;52.236;5.114;2023-02-28T05:13:05;103213.78;;;2.05;100.00
59170;BME280;52474;52.236;5.114;2023-02-28T05:15:31;103213.78;;;2.07;100.00
59170;BME280;52474;52.236;5.114;2023-02-28T05:17:57;103200.84;;;1.93;100.00
59170;BME280;52474;52.236;5.114;2023-02-28T05:20:22;103211.16;;;2.04;100.00
59170;BME280;52474;52.236;5.114;2023-02-28T05:22:49;103212.97;;;2.00;100.00
59170;BME280;52474;52.236;5.114;2023-02-28T05:25:20;103220.00;;;1.95;100.00
59170;BME280;52474;52.236;5.114;2023-02-28T05:27:47;103197.50;;;1.80;100.00
59170;BME280;52474;52.236;5.114;2023-02-28T05:30:13;103217.47;;;1.86;100.00
59170;BME280;52474;52.236;5.114;2023-02-28T05:32:39;103224.53;;;1.78;100.00
59170;BME280;52474;52.236;5.114;2023-02-28T05:35:10;103221.13;;;1.69;100.00
59170;BME280;52474;52.236;5.114;2023-02-28T05:37:37;103222.88;;;1.69;100.00
59170;BME280;52474;52.236;5.114;2023-02-28T05:40:04;103211.59;;;1.62;100.00
59170;BME280;52474;52.236;5.114;2023-02-28T05:42:36;103216.91;;;1.58;100.00
59170;BME280;52474;52.236;5.114;2023-02-28T05:45:02;103202.22;;;1.44;100.00
59170;BME280;52474;52.236;5.114;2023-02-28T05:47:28;103218.66;;;1.53;100.00
59170;BME280;52474;52.236;5.114;2023-02-28T05:49:53;103219.56;;;1.50;100.00
59170;BME280;52474;52.236;5.114;2023-02-28T05:52:19;103224.00;;;1.43;100.00
59170;BME280;52474;52.236;5.114;2023-02-28T05:54:46;103230.13;;;1.38;100.00
59170;BME280;52474;52.236;5.114;2023-02-28T05:57:11;103192.06;;;1.11;100.00
59170;BME280;52474;52.236;5.114;2023-02-28T05:59:37;103239.75;;;1.31;100.00
59170;BME280;52474;52.236;5.114;2023-02-28T06:02:06;103225.03;;;1.22;100.00
59170;BME280;52474;52.236;5.114;2023-02-28T06:04:36;103233.75;;;1.21;100.00
59170;BME280;52474;52.236;5.114;2023-02-28T06:07:01;103232.03;;;1.19;100.00
59170;BME280;52474;52.236;5.114;2023-02-28T06:09:27;103223.38;;;1.14;100.00
59170;BME280;52474;52.236;5.114;2023-02-28T06:11:53;103235.53;;;1.15;100.00
59170;BME280;52474;52.236;5.114;2023-02-28T06:14:20;103227.75;;;1.07;100.00
59170;BME280;52474;52.236;5.114;2023-02-28T06:16:46;103233.00;;;1.02;100.00
59170;BME280;52474;52.236;5.114;2023-02-28T06:19:12;103237.41;;;0.99;100.00
59170;BME280;52474;52.236;5.114;2023-02-28T06:21:38;103241.75;;;0.97;100.00
59170;BME280;52474;52.236;5.114;2023-02-28T06:24:04;103243.50;;;0.93;100.00
59170;BME280;52474;52.236;5.114;2023-02-28T06:26:30;103222.78;;;0.72;100.00
59170;BME280;52474;52.236;5.114;2023-02-28T06:28:56;103258.38;;;0.80;100.00
59170;BME280;52474;52.236;5.114;2023-02-28T06:31:22;103232.41;;;0.59;100.00
59170;BME280;52474;52.236;5.114;2023-02-28T06:33:50;103255.84;;;0.67;100.00
59170;BME280;52474;52.236;5.114;2023-02-28T06:36:16;103261.09;;;0.60;100.00
59170;BME280;52474;52.236;5.114;2023-02-28T06:38:42;103236.81;;;0.48;100.00
59170;BME280;52474;52.236;5.114;2023-02-28T06:41:09;103267.22;;;0.52;100.00
59170;BME280;52474;52.236;5.114;2023-02-28T06:43:39;103262.03;;;0.41;100.00
59170;BME280;52474;52.236;5.114;2023-02-28T06:46:08;103270.72;;;0.37;100.00
59170;BME280;52474;52.236;5.114;2023-02-28T06:48:34;103278.56;;;0.34;100.00
59170;BME280;52474;52.236;5.114;2023-02-28T06:51:05;103272.53;;;0.26;100.00
59170;BME280;52474;52.236;5.114;2023-02-28T06:53:32;103282.09;;;0.24;100.00
59170;BME280;52474;52.236;5.114;2023-02-28T06:55:58;103272.56;;;0.18;100.00
59170;BME280;52474;52.236;5.114;2023-02-28T06:58:24;103291.63;;;0.25;100.00
59170;BME280;52474;52.236;5.114;2023-02-28T07:00:52;103283.81;;;0.21;100.00
59170;BME280;52474;52.236;5.114;2023-02-28T07:03:18;103282.13;;;0.17;100.00
59170;BME280;52474;52.236;5.114;2023-02-28T07:05:44;103282.97;;;0.18;100.00
59170;BME280;52474;52.236;5.114;2023-02-28T07:08:10;103291.69;;;0.15;100.00
59170;BME280;52474;52.236;5.114;2023-02-28T07:10:37;103290.81;;;0.13;100.00
59170;BME280;52474;52.236;5.114;2023-02-28T07:13:04;103271.72;;;-0.01;100.00
59170;BME280;52474;52.236;5.114;2023-02-28T07:15:30;103301.25;;;0.15;100.00
59170;BME280;52474;52.236;5.114;2023-02-28T07:17:57;103306.41;;;0.19;100.00
59170;BME280;52474;52.236;5.114;2023-02-28T07:20:23;103272.59;;;0.03;100.00
59170;BME280;52474;52.236;5.114;2023-02-28T07:22:50;103305.50;;;0.31;100.00
59170;BME280;52474;52.236;5.114;2023-02-28T07:25:23;103300.31;;;0.33;100.00
59170;BME280;52474;52.236;5.114;2023-02-28T07:27:49;103309.00;;;0.35;100.00
59170;BME280;52474;52.236;5.114;2023-02-28T07:30:15;103306.38;;;0.38;100.00
59170;BME280;52474;52.236;5.114;2023-02-28T07:32:40;103284.66;;;0.27;100.00
59170;BME280;52474;52.236;5.114;2023-02-28T07:35:07;103277.72;;;0.24;100.00
59170;BME280;52474;52.236;5.114;2023-02-28T07:37:32;103307.22;;;0.48;100.00
59170;BME280;52474;52.236;5.114;2023-02-28T07:40:10;103280.31;;;0.39;100.00
59170;BME280;52474;52.236;5.114;2023-02-28T07:42:40;103307.16;;;0.58;100.00
59170;BME280;52474;52.236;5.114;2023-02-28T07:45:09;103302.81;;;0.62;100.00
59170;BME280;52474;52.236;5.114;2023-02-28T07:47:41;103292.34;;;0.68;100.00
59170;BME280;52474;52.236;5.114;2023-02-28T07:50:09;103275.00;;;0.58;100.00
59170;BME280;52474;52.236;5.114;2023-02-28T07:52:36;103281.00;;;0.77;100.00
59170;BME280;52474;52.236;5.114;2023-02-28T07:55:03;103287.84;;;0.98;100.00
59170;BME280;52474;52.236;5.114;2023-02-28T07:57:30;103291.25;;;1.07;100.00
59170;BME280;52474;52.236;5.114;2023-02-28T07:59:55;103288.63;;;1.12;100.00
59170;BME280;52474;52.236;5.114;2023-02-28T08:02:21;103293.81;;;1.18;100.00
59170;BME280;52474;52.236;5.114;2023-02-28T08:04:47;103292.94;;;1.16;100.00
59170;BME280;52474;52.236;5.114;2023-02-28T08:07:13;103294.72;;;1.11;100.00
59170;BME280;52474;52.236;5.114;2023-02-28T08:09:40;103271.22;;;1.14;100.00
59170;BME280;52474;52.236;5.114;2023-02-28T08:12:07;103251.19;;;1.15;100.00
59170;BME280;52474;52.236;5.114;2023-02-28T08:14:33;103285.84;;;1.35;100.00
59170;BME280;52474;52.236;5.114;2023-02-28T08:16:59;103294.47;;;1.45;100.00
59170;BME280;52474;52.236;5.114;2023-02-28T08:19:25;103291.91;;;1.39;100.00
59170;BME280;52474;52.236;5.114;2023-02-28T08:21:50;103292.81;;;1.35;100.00
59170;BME280;52474;52.236;5.114;2023-02-28T08:24:16;103295.50;;;1.24;100.00
59170;BME280;52474;52.236;5.114;2023-02-28T08:26:43;103290.31;;;1.19;100.00
59170;BME280;52474;52.236;5.114;2023-02-28T08:29:09;103296.31;;;1.32;100.00
59170;BME280;52474;52.236;5.114;2023-02-28T08:31:35;103279.78;;;1.30;100.00
59170;BME280;52474;52.236;5.114;2023-02-28T08:34:12;103280.66;;;1.32;100.00
59170;BME280;52474;52.236;5.114;2023-02-28T08:36:39;103296.19;;;1.49;100.00
59170;BME280;52474;52.236;5.114;2023-02-28T08:39:06;103295.22;;;1.59;100.00
59170;BME280;52474;52.236;5.114;2023-02-28T08:41:33;103283.06;;;1.57;100.00
59170;BME280;52474;52.236;5.114;2023-02-28T08:43:59;103295.19;;;1.65;100.00
59170;BME280;52474;52.236;5.114;2023-02-28T08:46:25;103269.94;;;1.66;100.00
59170;BME280;52474;52.236;5.114;2023-02-28T08:48:52;103284.66;;;1.73;100.00
59170;BME280;52474;52.236;5.114;2023-02-28T08:51:22;103299.34;;;1.88;100.00
59170;BME280;52474;52.236;5.114;2023-02-28T08:54:00;103294.00;;;2.00;100.00
59170;BME280;52474;52.236;5.114;2023-02-28T08:56:27;103302.56;;;2.11;100.00
59170;BME280;52474;52.236;5.114;2023-02-28T08:58:55;103289.22;;;2.36;100.00
59170;BME280;52474;52.236;5.114;2023-02-28T09:01:24;103253.69;;;2.20;100.00
59170;BME280;52474;52.236;5.114;2023-02-28T09:03:51;103286.88;;;2.84;100.00
59170;BME280;52474;52.236;5.114;2023-02-28T09:06:18;103293.28;;;3.25;100.00
59170;BME280;52474;52.236;5.114;2023-02-28T09:08:45;103266.50;;;3.05;100.00
59170;BME280;52474;52.236;5.114;2023-02-28T09:11:11;103291.59;;;3.21;100.00
59170;BME280;52474;52.236;5.114;2023-02-28T09:13:38;103272.78;;;2.93;100.00
59170;BME280;52474;52.236;5.114;2023-02-28T09:16:07;103304.00;;;3.08;100.00
59170;BME280;52474;52.236;5.114;2023-02-28T09:18:36;103278.03;;;2.93;100.00
59170;BME280;52474;52.236;5.114;2023-02-28T09:21:07;103302.28;;;3.06;100.00
59170;BME280;52474;52.236;5.114;2023-02-28T09:23:34;103304.00;;;3.07;100.00
59170;BME280;52474;52.236;5.114;2023-02-28T09:26:00;103307.44;;;3.12;100.00
59170;BME280;52474;52.236;5.114;2023-02-28T09:28:26;103302.13;;;3.16;100.00
59170;BME280;52474;52.236;5.114;2023-02-28T09:30:53;103304.81;;;3.13;100.00
59170;BME280;52474;52.236;5.114;2023-02-28T09:33:22;103303.22;;;3.01;100.00
59170;BME280;52474;52.236;5.114;2023-02-28T09:35:49;103303.91;;;3.14;100.00
59170;BME280;52474;52.236;5.114;2023-02-28T09:38:16;103296.91;;;3.15;100.00
59170;BME280;52474;52.236;5.114;2023-02-28T09:40:51;103295.84;;;3.27;100.00
59170;BME280;52474;52.236;5.114;2023-02-28T09:43:20;103306.34;;;3.27;100.00
59170;BME280;52474;52.236;5.114;2023-02-28T09:45:54;103296.38;;;3.50;100.00
59170;BME280;52474;52.236;5.114;2023-02-28T09:48:27;103291.41;;;3.32;100.00
59170;BME280;52474;52.236;5.114;2023-02-28T09:51:02;103291.41;;;3.32;100.00
59170;BME280;52474;52.236;5.114;2023-02-28T09:53:34;103278.38;;;3.30;100.00
59170;BME280;52474;52.236;5.114;2023-02-28T09:56:39;103289.50;;;3.43;100.00
59170;BME280;52474;52.236;5.114;2023-02-28T09:59:12;103294.41;;;3.63;100.00
59170;BME280;52474;52.236;5.114;2023-02-28T10:01:50;103275.94;;;3.69;100.00
59170;BME280;52474;52.236;5.114;2023-02-28T10:04:51;103291.59;;;4.22;100.00
59170;BME280;52474;52.236;5.114;2023-02-28T10:07:42;103293.63;;;5.30;100.00
59170;BME280;52474;52.236;5.114;2023-02-28T10:13:32;103293.13;;;4.34;100.00
59170;BME280;52474;52.236;5.114;2023-02-28T10:15:58;103292.53;;;4.18;100.00
59170;BME280;52474;52.236;5.114;2023-02-28T10:18:56;103296.59;;;4.36;100.00
59170;BME280;52474;52.236;5.114;2023-02-28T10:21:31;103266.00;;;6.17;100.00
59170;BME280;52474;52.236;5.114;2023-02-28T10:24:48;103257.94;;;6.82;100.00
59170;BME280;52474;52.236;5.114;2023-02-28T10:26:50;103293.28;;;8.33;100.00
59170;BME280;52474;52.236;5.114;2023-02-28T10:29:21;103292.25;;;7.62;100.00
59170;BME280;52474;52.236;5.114;2023-02-28T10:31:49;103235.78;;;11.24;100.00
59170;BME280;52474;52.236;5.114;2023-02-28T10:34:15;103281.97;;;10.64;100.00
59170;BME280;52474;52.236;5.114;2023-02-28T10:36:44;103260.78;;;8.78;100.00
59170;BME280;52474;52.236;5.114;2023-02-28T10:39:39;103281.25;;;9.17;100.00
59170;BME280;52474;52.236;5.114;2023-02-28T10:42:19;103269.94;;;10.76;100.00
59170;BME280;52474;52.236;5.114;2023-02-28T10:44:46;103273.59;;;9.11;100.00
59170;BME280;52474;52.236;5.114;2023-02-28T10:47:16;103270.81;;;8.92;100.00
59170;BME280;52474;52.236;5.114;2023-02-28T10:49:50;103272.09;;;9.48;100.00
59170;BME280;52474;52.236;5.114;2023-02-28T10:52:36;103267.69;;;9.47;100.00
59170;BME280;52474;52.236;5.114;2023-02-28T10:55:21;103238.88;;;10.97;100.00
59170;BME280;52474;52.236;5.114;2023-02-28T10:57:48;103239.59;;;14.20;100.00
59170;BME280;52474;52.236;5.114;2023-02-28T11:00:21;103252.97;;;10.98;100.00
59170;BME280;52474;52.236;5.114;2023-02-28T11:02:48;103268.59;;;9.48;100.00
59170;BME280;52474;52.236;5.114;2023-02-28T11:05:30;103254.56;;;8.09;100.00
59170;BME280;52474;52.236;5.114;2023-02-28T11:08:04;103262.09;;;8.90;100.00
59170;BME280;52474;52.236;5.114;2023-02-28T11:10:31;103251.66;;;9.30;100.00
59170;BME280;52474;52.236;5.114;2023-02-28T11:13:00;103227.09;;;9.68;100.00
59170;BME280;52474;52.236;5.114;2023-02-28T11:15:32;103213.38;;;9.79;100.00
59170;BME280;52474;52.236;5.114;2023-02-28T11:20:54;103245.91;;;12.36;100.00
59170;BME280;52474;52.236;5.114;2023-02-28T11:23:25;103226.56;;;15.91;91.13
59170;BME280;52474;52.236;5.114;2023-02-28T11:25:54;103232.53;;;20.03;59.76
59170;BME280;52474;52.236;5.114;2023-02-28T11:33:53;103209.88;;;22.73;42.73
59170;BME280;52474;52.236;5.114;2023-02-28T11:36:26;103192.28;;;23.75;37.18
59170;BME280;52474;52.236;5.114;2023-02-28T11:38:59;103207.88;;;22.93;30.93
59170;BME280;52474;52.236;5.114;2023-02-28T11:44:47;103202.19;;;23.14;34.02
59170;BME280;52474;52.236;5.114;2023-02-28T11:47:38;103211.75;;;23.78;33.54
59170;BME280;52474;52.236;5.114;2023-02-28T11:52:52;103195.34;;;23.54;36.18
59170;BME280;52474;52.236;5.114;2023-02-28T11:55:32;103194.75;;;21.32;33.27
59170;BME280;52474;52.236;5.114;2023-02-28T12:06:15;103170.44;;;23.16;34.01
59170;BME280;52474;52.236;5.114;2023-02-28T12:19:26;103185.66;;;21.80;30.65
59170;BME280;52474;52.236;5.114;2023-02-28T12:22:13;103183.66;;;22.65;31.09
59170;BME280;52474;52.236;5.114;2023-02-28T12:27:36;103179.25;;;22.82;27.80
59170;BME280;52474;52.236;5.114;2023-02-28T12:30:24;103174.59;;;22.92;28.71
59170;BME280;52474;52.236;5.114;2023-02-28T12:33:04;103175.06;;;22.88;27.31
59170;BME280;52474;52.236;5.114;2023-02-28T12:35:51;103172.63;;;22.77;28.40
59170;BME280;52474;52.236;5.114;2023-02-28T12:38:41;103162.50;;;22.61;26.80
59170;BME280;52474;52.236;5.114;2023-02-28T12:41:15;103168.50;;;22.09;28.05
59170;BME280;52474;52.236;5.114;2023-02-28T12:43:47;103147.38;;;22.68;29.41
59170;BME280;52474;52.236;5.114;2023-02-28T12:46:21;103160.13;;;21.47;29.23
59170;BME280;52474;52.236;5.114;2023-02-28T12:48:53;103159.84;;;19.11;32.77
59170;BME280;52474;52.236;5.114;2023-02-28T12:51:22;103155.38;;;20.83;30.63
59170;BME280;52474;52.236;5.114;2023-02-28T12:55:02;103159.22;;;20.70;29.92
59170;BME280;52474;52.236;5.114;2023-02-28T12:59:57;103132.09;;;22.77;27.69
59170;BME280;52474;52.236;5.114;2023-02-28T13:10:18;103156.16;;;10.90;54.85
59170;BME280;52474;52.236;5.114;2023-02-28T13:12:52;103160.44;;;11.28;71.18
59170;BME280;52474;52.236;5.114;2023-02-28T13:15:28;103142.50;;;11.66;64.90
59170;BME280;52474;52.236;5.114;2023-02-28T13:17:59;103156.66;;;11.32;70.29
59170;BME280;52474;52.236;5.114;2023-02-28T13:20:36;103139.16;;;11.96;69.39
59170;BME280;52474;52.236;5.114;2023-02-28T13:26:05;103143.56;;;10.77;69.87
59170;BME280;52474;52.236;5.114;2023-02-28T13:29:05;103139.47;;;10.33;69.92
59170;BME280;52474;52.236;5.114;2023-02-28T13:34:38;103136.59;;;9.21;74.26
59170;BME280;52474;52.236;5.114;2023-02-28T13:47:44;103132.09;;;9.43;76.22
59170;BME280;52474;52.236;5.114;2023-02-28T13:50:33;103134.19;;;9.15;74.59
59170;BME280;52474;52.236;5.114;2023-02-28T13:53:28;103127.44;;;9.49;77.56
59170;BME280;52474;52.236;5.114;2023-02-28T13:56:33;103118.13;;;9.60;73.49
59170;BME280;52474;52.236;5.114;2023-02-28T13:59:13;103120.06;;;9.36;71.97
59170;BME280;52474;52.236;5.114;2023-02-28T14:07:27;103116.75;;;8.68;74.05
59170;BME280;52474;52.236;5.114;2023-02-28T14:10:04;103125.81;;;8.17;78.79
59170;BME280;52474;52.236;5.114;2023-02-28T14:15:54;103129.44;;;7.67;81.07
59170;BME280;52474;52.236;5.114;2023-02-28T14:18:42;103111.50;;;8.01;82.08
59170;BME280;52474;52.236;5.114;2023-02-28T14:21:29;103092.81;;;7.83;100.00
59170;BME280;52474;52.236;5.114;2023-02-28T14:37:43;103113.00;;;6.84;100.00
59170;BME280;52474;52.236;5.114;2023-02-28T14:40:19;103106.53;;;6.68;100.00
59170;BME280;52474;52.236;5.114;2023-02-28T14:43:01;103107.22;;;6.46;100.00
59170;BME280;52474;52.236;5.114;2023-02-28T14:45:31;103090.69;;;6.13;100.00
59170;BME280;52474;52.236;5.114;2023-02-28T14:47:58;103082.75;;;6.16;100.00
59170;BME280;52474;52.236;5.114;2023-02-28T14:50:35;103101.59;;;6.30;100.00
59170;BME280;52474;52.236;5.114;2023-02-28T14:53:03;103095.69;;;6.22;100.00
59170;BME280;52474;52.236;5.114;2023-02-28T14:55:34;103101.19;;;6.14;100.00
59170;BME280;52474;52.236;5.114;2023-02-28T14:58:06;103095.13;;;6.12;100.00
59170;BME280;52474;52.236;5.114;2023-02-28T15:00:34;103111.69;;;6.16;100.00
59170;BME280;52474;52.236;5.114;2023-02-28T15:03:17;103105.78;;;6.08;100.00
59170;BME280;52474;52.236;5.114;2023-02-28T15:05:52;103106.06;;;5.98;100.00
59170;BME280;52474;52.236;5.114;2023-02-28T15:08:18;103104.53;;;5.90;100.00
59170;BME280;52474;52.236;5.114;2023-02-28T15:10:59;103107.16;;;5.90;100.00
59170;BME280;52474;52.236;5.114;2023-02-28T15:16:10;103102.72;;;5.92;100.00